sensor_id;sensor_type;location;lat;lon;timestamp;P1;durP1;ratioP1;P2;durP2;ratioP2
17340;SDS011;8788;49.930;8.660;2022-07-06T00:01:19;0.80;;;0.70;;
17340;SDS011;8788;49.930;8.660;2022-07-06T00:03:52;2.70;;;1.70;;
17340;SDS011;8788;49.930;8.660;2022-07-06T00:06:20;1.40;;;0.80;;
17340;SDS011;8788;49.930;8.660;2022-07-06T00:08:47;1.48;;;1.13;;
17340;SDS011;8788;49.930;8.660;2022-07-06T00:11:15;1.65;;;1.27;;
17340;SDS011;8788;49.930;8.660;2022-07-06T00:13:42;0.90;;;0.90;;
17340;SDS011;8788;49.930;8.660;2022-07-06T00:16:09;2.45;;;1.00;;
17340;SDS011;8788;49.930;8.660;2022-07-06T00:18:37;1.40;;;1.30;;
17340;SDS011;8788;49.930;8.660;2022-07-06T00:21:04;0.82;;;0.82;;
17340;SDS011;8788;49.930;8.660;2022-07-06T00:23:32;1.27;;;1.17;;
17340;SDS011;8788;49.930;8.660;2022-07-06T00:26:00;3.95;;;1.15;;
17340;SDS011;8788;49.930;8.660;2022-07-06T00:28:27;2.85;;;1.20;;
17340;SDS011;8788;49.930;8.660;2022-07-06T00:30:54;1.95;;;1.33;;
17340;SDS011;8788;49.930;8.660;2022-07-06T00:33:21;2.95;;;0.90;;
17340;SDS011;8788;49.930;8.660;2022-07-06T00:35:49;1.35;;;1.23;;
17340;SDS011;8788;49.930;8.660;2022-07-06T00:38:17;1.23;;;1.13;;
17340;SDS011;8788;49.930;8.660;2022-07-06T00:40:45;1.90;;;0.77;;
17340;SDS011;8788;49.930;8.660;2022-07-06T00:43:13;1.38;;;1.23;;
17340;SDS011;8788;49.930;8.660;2022-07-06T00:45:41;2.70;;;1.20;;
17340;SDS011;8788;49.930;8.660;2022-07-06T00:48:08;3.45;;;1.38;;
17340;SDS011;8788;49.930;8.660;2022-07-06T00:50:37;2.50;;;1.27;;
17340;SDS011;8788;49.930;8.660;2022-07-06T00:53:05;1.75;;;1.00;;
17340;SDS011;8788;49.930;8.660;2022-07-06T00:55:34;3.75;;;1.20;;
17340;SDS011;8788;49.930;8.660;2022-07-06T00:58:06;1.55;;;1.42;;
17340;SDS011;8788;49.930;8.660;2022-07-06T01:00:34;2.40;;;1.17;;
17340;SDS011;8788;49.930;8.660;2022-07-06T01:03:02;5.28;;;1.40;;
17340;SDS011;8788;49.930;8.660;2022-07-06T01:05:29;3.00;;;1.48;;
17340;SDS011;8788;49.930;8.660;2022-07-06T01:07:56;1.50;;;1.40;;
17340;SDS011;8788;49.930;8.660;2022-07-06T01:10:25;2.08;;;1.50;;
17340;SDS011;8788;49.930;8.660;2022-07-06T01:12:53;1.52;;;1.42;;
17340;SDS011;8788;49.930;8.660;2022-07-06T01:15:24;2.17;;;1.40;;
17340;SDS011;8788;49.930;8.660;2022-07-06T01:17:53;2.50;;;1.75;;
17340;SDS011;8788;49.930;8.660;2022-07-06T01:20:28;1.65;;;1.50;;
17340;SDS011;8788;49.930;8.660;2022-07-06T01:22:58;1.88;;;1.63;;
17340;SDS011;8788;49.930;8.660;2022-07-06T01:25:25;1.60;;;1.50;;
17340;SDS011;8788;49.930;8.660;2022-07-06T01:27:55;3.92;;;1.52;;
17340;SDS011;8788;49.930;8.660;2022-07-06T01:30:23;1.92;;;1.80;;
17340;SDS011;8788;49.930;8.660;2022-07-06T01:32:50;2.15;;;1.25;;
17340;SDS011;8788;49.930;8.660;2022-07-06T01:35:17;1.67;;;1.42;;
17340;SDS011;8788;49.930;8.660;2022-07-06T01:37:47;3.63;;;1.48;;
17340;SDS011;8788;49.930;8.660;2022-07-06T01:40:14;3.33;;;1.60;;
17340;SDS011;8788;49.930;8.660;2022-07-06T01:42:44;3.80;;;1.65;;
17340;SDS011;8788;49.930;8.660;2022-07-06T01:45:12;1.35;;;1.23;;
17340;SDS011;8788;49.930;8.660;2022-07-06T01:47:40;2.95;;;1.52;;
17340;SDS011;8788;49.930;8.660;2022-07-06T01:50:08;1.40;;;1.27;;
17340;SDS011;8788;49.930;8.660;2022-07-06T01:52:44;1.48;;;1.38;;
17340;SDS011;8788;49.930;8.660;2022-07-06T01:55:13;2.85;;;1.50;;
17340;SDS011;8788;49.930;8.660;2022-07-06T01:57:40;2.78;;;1.52;;
17340;SDS011;8788;49.930;8.660;2022-07-06T02:00:10;1.65;;;1.33;;
17340;SDS011;8788;49.930;8.660;2022-07-06T02:02:43;3.28;;;1.42;;
17340;SDS011;8788;49.930;8.660;2022-07-06T02:05:11;2.70;;;1.50;;
17340;SDS011;8788;49.930;8.660;2022-07-06T02:07:38;1.92;;;1.23;;
17340;SDS011;8788;49.930;8.660;2022-07-06T02:10:08;2.85;;;1.50;;
17340;SDS011;8788;49.930;8.660;2022-07-06T02:12:36;1.70;;;1.60;;
17340;SDS011;8788;49.930;8.660;2022-07-06T02:15:04;3.10;;;1.95;;
17340;SDS011;8788;49.930;8.660;2022-07-06T02:17:33;2.17;;;1.30;;
17340;SDS011;8788;49.930;8.660;2022-07-06T02:20:00;1.27;;;1.17;;
17340;SDS011;8788;49.930;8.660;2022-07-06T02:22:27;2.45;;;1.17;;
17340;SDS011;8788;49.930;8.660;2022-07-06T02:24:54;3.67;;;1.88;;
17340;SDS011;8788;49.930;8.660;2022-07-06T02:27:21;2.92;;;1.58;;
17340;SDS011;8788;49.930;8.660;2022-07-06T02:29:51;1.75;;;1.63;;
17340;SDS011;8788;49.930;8.660;2022-07-06T02:32:19;1.70;;;1.58;;
17340;SDS011;8788;49.930;8.660;2022-07-06T02:34:46;4.57;;;1.80;;
17340;SDS011;8788;49.930;8.660;2022-07-06T02:37:13;1.65;;;1.55;;
17340;SDS011;8788;49.930;8.660;2022-07-06T02:39:40;3.95;;;1.50;;
17340;SDS011;8788;49.930;8.660;2022-07-06T02:42:08;2.72;;;1.30;;
17340;SDS011;8788;49.930;8.660;2022-07-06T02:44:36;1.50;;;1.40;;
17340;SDS011;8788;49.930;8.660;2022-07-06T02:47:04;1.63;;;1.40;;
17340;SDS011;8788;49.930;8.660;2022-07-06T02:49:32;2.25;;;1.35;;
17340;SDS011;8788;49.930;8.660;2022-07-06T02:51:59;1.98;;;1.30;;
17340;SDS011;8788;49.930;8.660;2022-07-06T02:54:27;1.73;;;1.58;;
17340;SDS011;8788;49.930;8.660;2022-07-06T02:56:54;2.40;;;0.98;;
17340;SDS011;8788;49.930;8.660;2022-07-06T02:59:21;3.55;;;1.30;;
17340;SDS011;8788;49.930;8.660;2022-07-06T03:01:49;3.30;;;1.38;;
17340;SDS011;8788;49.930;8.660;2022-07-06T03:04:18;1.48;;;1.38;;
17340;SDS011;8788;49.930;8.660;2022-07-06T03:06:46;1.90;;;1.23;;
17340;SDS011;8788;49.930;8.660;2022-07-06T03:09:13;1.70;;;1.60;;
17340;SDS011;8788;49.930;8.660;2022-07-06T03:11:41;1.95;;;1.23;;
17340;SDS011;8788;49.930;8.660;2022-07-06T03:14:08;3.67;;;1.50;;
17340;SDS011;8788;49.930;8.660;2022-07-06T03:16:38;1.50;;;1.33;;
17340;SDS011;8788;49.930;8.660;2022-07-06T03:19:06;2.70;;;1.35;;
17340;SDS011;8788;49.930;8.660;2022-07-06T03:21:34;1.33;;;1.23;;
17340;SDS011;8788;49.930;8.660;2022-07-06T03:24:02;1.25;;;1.17;;
17340;SDS011;8788;49.930;8.660;2022-07-06T03:26:30;1.52;;;1.20;;
17340;SDS011;8788;49.930;8.660;2022-07-06T03:28:57;3.85;;;1.25;;
17340;SDS011;8788;49.930;8.660;2022-07-06T03:31:24;1.88;;;1.52;;
17340;SDS011;8788;49.930;8.660;2022-07-06T03:33:52;2.15;;;1.48;;
17340;SDS011;8788;49.930;8.660;2022-07-06T03:36:19;1.67;;;1.48;;
17340;SDS011;8788;49.930;8.660;2022-07-06T03:38:48;2.15;;;1.33;;
17340;SDS011;8788;49.930;8.660;2022-07-06T03:41:16;1.23;;;0.80;;
17340;SDS011;8788;49.930;8.660;2022-07-06T03:43:44;2.35;;;1.08;;
17340;SDS011;8788;49.930;8.660;2022-07-06T03:46:11;1.70;;;1.00;;
17340;SDS011;8788;49.930;8.660;2022-07-06T03:48:38;1.92;;;1.40;;
17340;SDS011;8788;49.930;8.660;2022-07-06T03:51:06;1.45;;;1.17;;
17340;SDS011;8788;49.930;8.660;2022-07-06T03:53:36;1.00;;;0.98;;
17340;SDS011;8788;49.930;8.660;2022-07-06T03:56:04;1.45;;;1.08;;
17340;SDS011;8788;49.930;8.660;2022-07-06T03:58:49;1.83;;;1.02;;
17340;SDS011;8788;49.930;8.660;2022-07-06T04:01:17;1.50;;;1.10;;
17340;SDS011;8788;49.930;8.660;2022-07-06T04:03:46;1.27;;;1.17;;
17340;SDS011;8788;49.930;8.660;2022-07-06T04:06:13;0.88;;;0.82;;
17340;SDS011;8788;49.930;8.660;2022-07-06T04:09:05;2.25;;;1.08;;
17340;SDS011;8788;49.930;8.660;2022-07-06T04:11:34;1.15;;;1.05;;
17340;SDS011;8788;49.930;8.660;2022-07-06T04:14:02;1.23;;;1.10;;
17340;SDS011;8788;49.930;8.660;2022-07-06T04:16:29;1.73;;;1.10;;
17340;SDS011;8788;49.930;8.660;2022-07-06T04:18:57;1.10;;;0.82;;
17340;SDS011;8788;49.930;8.660;2022-07-06T04:21:24;1.27;;;1.00;;
17340;SDS011;8788;49.930;8.660;2022-07-06T04:23:52;1.30;;;1.20;;
17340;SDS011;8788;49.930;8.660;2022-07-06T04:26:19;0.98;;;0.98;;
17340;SDS011;8788;49.930;8.660;2022-07-06T04:28:48;1.40;;;1.30;;
17340;SDS011;8788;49.930;8.660;2022-07-06T04:31:15;2.22;;;1.30;;
17340;SDS011;8788;49.930;8.660;2022-07-06T04:33:45;1.17;;;0.85;;
17340;SDS011;8788;49.930;8.660;2022-07-06T04:36:12;1.40;;;1.27;;
17340;SDS011;8788;49.930;8.660;2022-07-06T04:38:42;2.75;;;1.20;;
17340;SDS011;8788;49.930;8.660;2022-07-06T04:41:11;1.63;;;1.00;;
17340;SDS011;8788;49.930;8.660;2022-07-06T04:43:38;1.52;;;1.10;;
17340;SDS011;8788;49.930;8.660;2022-07-06T04:46:08;1.67;;;1.20;;
17340;SDS011;8788;49.930;8.660;2022-07-06T04:48:39;1.02;;;1.00;;
17340;SDS011;8788;49.930;8.660;2022-07-06T04:51:11;2.03;;;1.00;;
17340;SDS011;8788;49.930;8.660;2022-07-06T04:53:39;2.78;;;1.20;;
17340;SDS011;8788;49.930;8.660;2022-07-06T04:56:07;2.15;;;1.05;;
17340;SDS011;8788;49.930;8.660;2022-07-06T04:58:36;2.90;;;1.30;;
17340;SDS011;8788;49.930;8.660;2022-07-06T05:01:06;1.65;;;1.13;;
17340;SDS011;8788;49.930;8.660;2022-07-06T05:03:34;2.42;;;1.55;;
17340;SDS011;8788;49.930;8.660;2022-07-06T05:06:05;3.47;;;1.35;;
17340;SDS011;8788;49.930;8.660;2022-07-06T05:08:33;3.80;;;1.48;;
17340;SDS011;8788;49.930;8.660;2022-07-06T05:11:01;5.70;;;1.45;;
17340;SDS011;8788;49.930;8.660;2022-07-06T05:13:28;1.45;;;1.15;;
17340;SDS011;8788;49.930;8.660;2022-07-06T05:15:57;2.72;;;1.35;;
17340;SDS011;8788;49.930;8.660;2022-07-06T05:18:24;5.00;;;1.77;;
17340;SDS011;8788;49.930;8.660;2022-07-06T05:20:53;2.22;;;1.50;;
17340;SDS011;8788;49.930;8.660;2022-07-06T05:23:20;2.92;;;1.88;;
17340;SDS011;8788;49.930;8.660;2022-07-06T05:25:48;1.90;;;1.70;;
17340;SDS011;8788;49.930;8.660;2022-07-06T05:28:15;4.40;;;1.70;;
17340;SDS011;8788;49.930;8.660;2022-07-06T05:30:43;2.05;;;1.30;;
17340;SDS011;8788;49.930;8.660;2022-07-06T05:33:12;2.35;;;1.70;;
17340;SDS011;8788;49.930;8.660;2022-07-06T05:35:39;1.48;;;1.30;;
17340;SDS011;8788;49.930;8.660;2022-07-06T05:38:08;2.42;;;1.35;;
17340;SDS011;8788;49.930;8.660;2022-07-06T05:40:36;2.90;;;1.92;;
17340;SDS011;8788;49.930;8.660;2022-07-06T05:43:03;2.15;;;1.58;;
17340;SDS011;8788;49.930;8.660;2022-07-06T05:45:31;8.40;;;2.28;;
17340;SDS011;8788;49.930;8.660;2022-07-06T05:47:58;3.42;;;1.77;;
17340;SDS011;8788;49.930;8.660;2022-07-06T05:50:43;1.73;;;1.60;;
17340;SDS011;8788;49.930;8.660;2022-07-06T05:53:11;1.85;;;1.50;;
17340;SDS011;8788;49.930;8.660;2022-07-06T05:55:39;2.15;;;1.45;;
17340;SDS011;8788;49.930;8.660;2022-07-06T05:58:06;1.90;;;1.60;;
17340;SDS011;8788;49.930;8.660;2022-07-06T06:00:35;2.53;;;1.77;;
17340;SDS011;8788;49.930;8.660;2022-07-06T06:03:08;2.08;;;1.27;;
17340;SDS011;8788;49.930;8.660;2022-07-06T06:05:36;3.20;;;2.28;;
17340;SDS011;8788;49.930;8.660;2022-07-06T06:08:05;1.83;;;1.30;;
17340;SDS011;8788;49.930;8.660;2022-07-06T06:10:35;1.77;;;1.52;;
17340;SDS011;8788;49.930;8.660;2022-07-06T06:13:06;5.47;;;1.70;;
17340;SDS011;8788;49.930;8.660;2022-07-06T06:15:34;3.28;;;1.67;;
17340;SDS011;8788;49.930;8.660;2022-07-06T06:18:03;3.47;;;1.83;;
17340;SDS011;8788;49.930;8.660;2022-07-06T06:20:30;2.72;;;1.80;;
17340;SDS011;8788;49.930;8.660;2022-07-06T06:22:58;5.68;;;2.28;;
17340;SDS011;8788;49.930;8.660;2022-07-06T06:25:29;3.20;;;1.70;;
17340;SDS011;8788;49.930;8.660;2022-07-06T06:27:59;2.67;;;1.67;;
17340;SDS011;8788;49.930;8.660;2022-07-06T06:30:27;3.33;;;1.70;;
17340;SDS011;8788;49.930;8.660;2022-07-06T06:33:04;1.83;;;1.73;;
17340;SDS011;8788;49.930;8.660;2022-07-06T06:35:35;7.30;;;2.28;;
17340;SDS011;8788;49.930;8.660;2022-07-06T06:38:03;2.30;;;1.52;;
17340;SDS011;8788;49.930;8.660;2022-07-06T06:40:30;1.95;;;1.70;;
17340;SDS011;8788;49.930;8.660;2022-07-06T06:42:57;2.85;;;1.70;;
17340;SDS011;8788;49.930;8.660;2022-07-06T06:45:28;2.22;;;1.60;;
17340;SDS011;8788;49.930;8.660;2022-07-06T06:47:55;3.55;;;1.70;;
17340;SDS011;8788;49.930;8.660;2022-07-06T06:50:22;3.13;;;1.50;;
17340;SDS011;8788;49.930;8.660;2022-07-06T06:52:50;2.53;;;1.58;;
17340;SDS011;8788;49.930;8.660;2022-07-06T06:55:17;4.85;;;2.38;;
17340;SDS011;8788;49.930;8.660;2022-07-06T06:57:44;3.72;;;2.10;;
17340;SDS011;8788;49.930;8.660;2022-07-06T07:00:14;2.33;;;1.80;;
17340;SDS011;8788;49.930;8.660;2022-07-06T07:02:41;1.85;;;1.40;;
17340;SDS011;8788;49.930;8.660;2022-07-06T07:05:08;1.50;;;1.40;;
17340;SDS011;8788;49.930;8.660;2022-07-06T07:07:36;2.58;;;1.65;;
17340;SDS011;8788;49.930;8.660;2022-07-06T07:10:04;3.22;;;1.77;;
17340;SDS011;8788;49.930;8.660;2022-07-06T07:12:31;1.58;;;1.48;;
17340;SDS011;8788;49.930;8.660;2022-07-06T07:15:00;2.95;;;1.80;;
17340;SDS011;8788;49.930;8.660;2022-07-06T07:17:29;2.00;;;1.90;;
17340;SDS011;8788;49.930;8.660;2022-07-06T07:19:56;1.58;;;1.48;;
17340;SDS011;8788;49.930;8.660;2022-07-06T07:22:23;3.10;;;1.80;;
17340;SDS011;8788;49.930;8.660;2022-07-06T07:24:51;2.35;;;1.42;;
17340;SDS011;8788;49.930;8.660;2022-07-06T07:27:18;6.05;;;2.20;;
17340;SDS011;8788;49.930;8.660;2022-07-06T07:29:45;5.50;;;2.17;;
17340;SDS011;8788;49.930;8.660;2022-07-06T07:32:12;6.80;;;2.08;;
17340;SDS011;8788;49.930;8.660;2022-07-06T07:34:41;3.47;;;2.17;;
17340;SDS011;8788;49.930;8.660;2022-07-06T07:37:08;3.33;;;2.20;;
17340;SDS011;8788;49.930;8.660;2022-07-06T07:39:35;2.42;;;1.65;;
17340;SDS011;8788;49.930;8.660;2022-07-06T07:42:07;2.72;;;1.90;;
17340;SDS011;8788;49.930;8.660;2022-07-06T07:44:35;3.03;;;1.83;;
17340;SDS011;8788;49.930;8.660;2022-07-06T07:47:04;3.75;;;1.92;;
17340;SDS011;8788;49.930;8.660;2022-07-06T07:49:31;3.20;;;2.33;;
17340;SDS011;8788;49.930;8.660;2022-07-06T07:52:00;4.80;;;1.88;;
17340;SDS011;8788;49.930;8.660;2022-07-06T07:54:27;3.17;;;1.95;;
17340;SDS011;8788;49.930;8.660;2022-07-06T07:56:57;2.22;;;1.73;;
17340;SDS011;8788;49.930;8.660;2022-07-06T07:59:24;6.72;;;1.80;;
17340;SDS011;8788;49.930;8.660;2022-07-06T08:01:52;2.05;;;1.85;;
17340;SDS011;8788;49.930;8.660;2022-07-06T08:04:19;2.78;;;2.10;;
17340;SDS011;8788;49.930;8.660;2022-07-06T08:06:46;3.13;;;1.95;;
17340;SDS011;8788;49.930;8.660;2022-07-06T08:09:15;1.98;;;1.77;;
17340;SDS011;8788;49.930;8.660;2022-07-06T08:11:43;2.03;;;1.83;;
17340;SDS011;8788;49.930;8.660;2022-07-06T08:14:10;2.03;;;1.88;;
17340;SDS011;8788;49.930;8.660;2022-07-06T08:16:39;3.50;;;1.95;;
17340;SDS011;8788;49.930;8.660;2022-07-06T08:19:06;3.13;;;2.20;;
17340;SDS011;8788;49.930;8.660;2022-07-06T08:21:34;2.45;;;2.13;;
17340;SDS011;8788;49.930;8.660;2022-07-06T08:24:03;1.88;;;1.75;;
17340;SDS011;8788;49.930;8.660;2022-07-06T08:26:31;2.90;;;2.13;;
17340;SDS011;8788;49.930;8.660;2022-07-06T08:28:59;2.88;;;2.47;;
17340;SDS011;8788;49.930;8.660;2022-07-06T08:31:26;3.97;;;2.30;;
17340;SDS011;8788;49.930;8.660;2022-07-06T08:33:58;2.88;;;2.13;;
17340;SDS011;8788;49.930;8.660;2022-07-06T08:36:25;4.65;;;2.10;;
17340;SDS011;8788;49.930;8.660;2022-07-06T08:38:52;3.90;;;2.72;;
17340;SDS011;8788;49.930;8.660;2022-07-06T08:41:21;5.30;;;2.30;;
17340;SDS011;8788;49.930;8.660;2022-07-06T08:43:51;3.03;;;1.40;;
17340;SDS011;8788;49.930;8.660;2022-07-06T08:46:19;4.43;;;2.13;;
17340;SDS011;8788;49.930;8.660;2022-07-06T08:48:47;5.88;;;2.13;;
17340;SDS011;8788;49.930;8.660;2022-07-06T08:51:15;3.53;;;1.80;;
17340;SDS011;8788;49.930;8.660;2022-07-06T08:53:44;2.65;;;1.83;;
17340;SDS011;8788;49.930;8.660;2022-07-06T08:56:14;1.98;;;1.70;;
17340;SDS011;8788;49.930;8.660;2022-07-06T08:58:42;3.38;;;1.77;;
17340;SDS011;8788;49.930;8.660;2022-07-06T09:01:11;1.92;;;1.80;;
17340;SDS011;8788;49.930;8.660;2022-07-06T09:03:39;2.88;;;2.58;;
17340;SDS011;8788;49.930;8.660;2022-07-06T09:06:07;1.67;;;1.58;;
17340;SDS011;8788;49.930;8.660;2022-07-06T09:08:36;2.55;;;1.52;;
17340;SDS011;8788;49.930;8.660;2022-07-06T09:11:03;1.33;;;1.23;;
17340;SDS011;8788;49.930;8.660;2022-07-06T09:13:30;3.85;;;1.73;;
17340;SDS011;8788;49.930;8.660;2022-07-06T09:16:08;2.55;;;1.77;;
17340;SDS011;8788;49.930;8.660;2022-07-06T09:18:38;2.90;;;2.13;;
17340;SDS011;8788;49.930;8.660;2022-07-06T09:21:07;2.25;;;1.75;;
17340;SDS011;8788;49.930;8.660;2022-07-06T09:23:35;1.77;;;1.67;;
17340;SDS011;8788;49.930;8.660;2022-07-06T09:26:06;1.60;;;1.50;;
17340;SDS011;8788;49.930;8.660;2022-07-06T09:28:42;2.35;;;1.58;;
17340;SDS011;8788;49.930;8.660;2022-07-06T09:31:10;2.67;;;1.60;;
17340;SDS011;8788;49.930;8.660;2022-07-06T09:33:39;4.75;;;2.13;;
17340;SDS011;8788;49.930;8.660;2022-07-06T09:36:29;4.90;;;1.77;;
17340;SDS011;8788;49.930;8.660;2022-07-06T09:39:16;3.05;;;1.88;;
17340;SDS011;8788;49.930;8.660;2022-07-06T09:41:44;4.10;;;1.67;;
17340;SDS011;8788;49.930;8.660;2022-07-06T09:44:11;2.25;;;1.98;;
17340;SDS011;8788;49.930;8.660;2022-07-06T09:46:40;5.45;;;1.80;;
17340;SDS011;8788;49.930;8.660;2022-07-06T09:49:09;2.20;;;2.00;;
17340;SDS011;8788;49.930;8.660;2022-07-06T09:51:36;3.35;;;1.50;;
17340;SDS011;8788;49.930;8.660;2022-07-06T09:54:05;2.15;;;1.60;;
17340;SDS011;8788;49.930;8.660;2022-07-06T09:56:37;3.10;;;1.52;;
17340;SDS011;8788;49.930;8.660;2022-07-06T09:59:05;2.60;;;1.73;;
17340;SDS011;8788;49.930;8.660;2022-07-06T10:01:35;2.72;;;1.70;;
17340;SDS011;8788;49.930;8.660;2022-07-06T10:04:03;2.95;;;1.70;;
17340;SDS011;8788;49.930;8.660;2022-07-06T10:06:33;4.38;;;2.38;;
17340;SDS011;8788;49.930;8.660;2022-07-06T10:09:02;2.13;;;1.70;;
17340;SDS011;8788;49.930;8.660;2022-07-06T10:11:33;3.25;;;1.80;;
17340;SDS011;8788;49.930;8.660;2022-07-06T10:14:04;3.10;;;1.40;;
17340;SDS011;8788;49.930;8.660;2022-07-06T10:16:33;1.60;;;1.30;;
17340;SDS011;8788;49.930;8.660;2022-07-06T10:19:02;1.33;;;1.08;;
17340;SDS011;8788;49.930;8.660;2022-07-06T10:21:34;4.60;;;1.50;;
17340;SDS011;8788;49.930;8.660;2022-07-06T10:24:03;3.03;;;1.13;;
17340;SDS011;8788;49.930;8.660;2022-07-06T10:26:32;2.03;;;1.25;;
17340;SDS011;8788;49.930;8.660;2022-07-06T10:29:00;1.63;;;1.17;;
17340;SDS011;8788;49.930;8.660;2022-07-06T10:31:27;1.95;;;0.80;;
17340;SDS011;8788;49.930;8.660;2022-07-06T10:33:56;0.80;;;0.80;;
17340;SDS011;8788;49.930;8.660;2022-07-06T10:36:25;1.42;;;1.27;;
17340;SDS011;8788;49.930;8.660;2022-07-06T10:38:54;1.92;;;1.05;;
17340;SDS011;8788;49.930;8.660;2022-07-06T10:41:31;0.93;;;0.93;;
17340;SDS011;8788;49.930;8.660;2022-07-06T10:44:06;2.25;;;0.93;;
17340;SDS011;8788;49.930;8.660;2022-07-06T10:46:41;1.52;;;1.00;;
17340;SDS011;8788;49.930;8.660;2022-07-06T10:49:16;2.17;;;1.05;;
17340;SDS011;8788;49.930;8.660;2022-07-06T10:51:46;1.95;;;0.80;;
17340;SDS011;8788;49.930;8.660;2022-07-06T10:54:16;2.20;;;1.20;;
17340;SDS011;8788;49.930;8.660;2022-07-06T10:56:48;1.02;;;0.90;;
17340;SDS011;8788;49.930;8.660;2022-07-06T10:59:17;2.28;;;0.85;;
17340;SDS011;8788;49.930;8.660;2022-07-06T11:04:40;0.82;;;0.80;;
17340;SDS011;8788;49.930;8.660;2022-07-06T11:07:09;1.05;;;0.85;;
17340;SDS011;8788;49.930;8.660;2022-07-06T11:09:38;1.38;;;0.82;;
17340;SDS011;8788;49.930;8.660;2022-07-06T11:12:11;2.05;;;0.88;;
17340;SDS011;8788;49.930;8.660;2022-07-06T11:14:42;1.00;;;0.82;;
17340;SDS011;8788;49.930;8.660;2022-07-06T11:17:09;1.70;;;0.82;;
17340;SDS011;8788;49.930;8.660;2022-07-06T11:19:38;1.13;;;0.98;;
17340;SDS011;8788;49.930;8.660;2022-07-06T11:22:15;0.77;;;0.68;;
17340;SDS011;8788;49.930;8.660;2022-07-06T11:24:45;2.08;;;0.77;;
17340;SDS011;8788;49.930;8.660;2022-07-06T11:27:12;1.65;;;0.95;;
17340;SDS011;8788;49.930;8.660;2022-07-06T11:29:40;2.03;;;0.98;;
17340;SDS011;8788;49.930;8.660;2022-07-06T11:32:08;1.58;;;0.90;;
17340;SDS011;8788;49.930;8.660;2022-07-06T11:34:36;0.90;;;0.80;;
17340;SDS011;8788;49.930;8.660;2022-07-06T11:37:06;0.80;;;0.80;;
17340;SDS011;8788;49.930;8.660;2022-07-06T11:39:35;0.80;;;0.80;;
17340;SDS011;8788;49.930;8.660;2022-07-06T11:42:06;0.80;;;0.80;;
17340;SDS011;8788;49.930;8.660;2022-07-06T11:44:34;1.08;;;1.02;;
17340;SDS011;8788;49.930;8.660;2022-07-06T11:47:02;2.28;;;0.93;;
17340;SDS011;8788;49.930;8.660;2022-07-06T11:49:31;1.58;;;1.20;;
17340;SDS011;8788;49.930;8.660;2022-07-06T11:52:00;1.02;;;0.90;;
17340;SDS011;8788;49.930;8.660;2022-07-06T11:54:32;0.65;;;0.65;;
17340;SDS011;8788;49.930;8.660;2022-07-06T11:56:59;1.20;;;1.10;;
17340;SDS011;8788;49.930;8.660;2022-07-06T11:59:30;1.08;;;0.98;;
17340;SDS011;8788;49.930;8.660;2022-07-06T12:01:59;0.88;;;0.88;;
17340;SDS011;8788;49.930;8.660;2022-07-06T12:04:27;2.33;;;0.93;;
17340;SDS011;8788;49.930;8.660;2022-07-06T12:06:55;1.88;;;1.00;;
17340;SDS011;8788;49.930;8.660;2022-07-06T12:09:29;1.10;;;1.00;;
17340;SDS011;8788;49.930;8.660;2022-07-06T12:11:56;1.05;;;0.93;;
17340;SDS011;8788;49.930;8.660;2022-07-06T12:14:27;2.50;;;0.80;;
17340;SDS011;8788;49.930;8.660;2022-07-06T12:17:02;2.80;;;1.40;;
17340;SDS011;8788;49.930;8.660;2022-07-06T12:19:30;2.03;;;1.08;;
17340;SDS011;8788;49.930;8.660;2022-07-06T12:21:57;2.05;;;1.10;;
17340;SDS011;8788;49.930;8.660;2022-07-06T12:24:26;2.83;;;0.90;;
17340;SDS011;8788;49.930;8.660;2022-07-06T12:26:56;0.98;;;0.93;;
17340;SDS011;8788;49.930;8.660;2022-07-06T12:29:23;1.95;;;1.00;;
17340;SDS011;8788;49.930;8.660;2022-07-06T12:31:53;0.90;;;0.90;;
17340;SDS011;8788;49.930;8.660;2022-07-06T12:34:22;1.15;;;0.95;;
17340;SDS011;8788;49.930;8.660;2022-07-06T12:36:53;0.90;;;0.70;;
17340;SDS011;8788;49.930;8.660;2022-07-06T12:39:21;1.05;;;1.00;;
17340;SDS011;8788;49.930;8.660;2022-07-06T12:41:51;3.83;;;1.02;;
17340;SDS011;8788;49.930;8.660;2022-07-06T12:44:20;1.13;;;1.02;;
17340;SDS011;8788;49.930;8.660;2022-07-06T12:46:48;1.30;;;0.80;;
17340;SDS011;8788;49.930;8.660;2022-07-06T12:49:19;0.55;;;0.55;;
17340;SDS011;8788;49.930;8.660;2022-07-06T12:51:54;0.52;;;0.52;;
17340;SDS011;8788;49.930;8.660;2022-07-06T12:54:23;0.65;;;0.65;;
17340;SDS011;8788;49.930;8.660;2022-07-06T12:56:58;0.80;;;0.80;;
17340;SDS011;8788;49.930;8.660;2022-07-06T12:59:28;0.77;;;0.70;;
17340;SDS011;8788;49.930;8.660;2022-07-06T13:01:55;0.52;;;0.52;;
17340;SDS011;8788;49.930;8.660;2022-07-06T13:04:24;0.57;;;0.57;;
17340;SDS011;8788;49.930;8.660;2022-07-06T13:06:56;0.80;;;0.57;;
17340;SDS011;8788;49.930;8.660;2022-07-06T13:09:24;1.92;;;0.77;;
17340;SDS011;8788;49.930;8.660;2022-07-06T13:11:51;1.98;;;0.45;;
17340;SDS011;8788;49.930;8.660;2022-07-06T13:14:18;1.38;;;0.50;;
17340;SDS011;8788;49.930;8.660;2022-07-06T13:17:10;1.58;;;0.90;;
17340;SDS011;8788;49.930;8.660;2022-07-06T13:19:39;1.10;;;0.90;;
17340;SDS011;8788;49.930;8.660;2022-07-06T13:22:06;0.70;;;0.70;;
17340;SDS011;8788;49.930;8.660;2022-07-06T13:24:34;2.53;;;0.73;;
17340;SDS011;8788;49.930;8.660;2022-07-06T13:27:01;1.00;;;0.75;;
17340;SDS011;8788;49.930;8.660;2022-07-06T13:29:29;0.90;;;0.70;;
17340;SDS011;8788;49.930;8.660;2022-07-06T13:31:56;0.93;;;0.85;;
17340;SDS011;8788;49.930;8.660;2022-07-06T13:34:23;1.45;;;0.77;;
17340;SDS011;8788;49.930;8.660;2022-07-06T13:36:52;0.50;;;0.50;;
17340;SDS011;8788;49.930;8.660;2022-07-06T13:39:19;0.77;;;0.77;;
17340;SDS011;8788;49.930;8.660;2022-07-06T13:41:46;0.68;;;0.68;;
17340;SDS011;8788;49.930;8.660;2022-07-06T13:44:14;0.88;;;0.82;;
17340;SDS011;8788;49.930;8.660;2022-07-06T13:46:41;2.25;;;0.85;;
17340;SDS011;8788;49.930;8.660;2022-07-06T13:49:09;2.30;;;0.82;;
17340;SDS011;8788;49.930;8.660;2022-07-06T13:51:36;1.05;;;0.75;;
17340;SDS011;8788;49.930;8.660;2022-07-06T13:54:05;1.75;;;0.80;;
17340;SDS011;8788;49.930;8.660;2022-07-06T13:56:32;0.75;;;0.63;;
17340;SDS011;8788;49.930;8.660;2022-07-06T13:59:00;2.30;;;0.80;;
17340;SDS011;8788;49.930;8.660;2022-07-06T14:01:27;0.60;;;0.60;;
17340;SDS011;8788;49.930;8.660;2022-07-06T14:03:54;0.77;;;0.77;;
17340;SDS011;8788;49.930;8.660;2022-07-06T14:06:21;0.80;;;0.70;;
17340;SDS011;8788;49.930;8.660;2022-07-06T14:09:15;2.17;;;0.70;;
17340;SDS011;8788;49.930;8.660;2022-07-06T14:11:42;1.58;;;0.60;;
17340;SDS011;8788;49.930;8.660;2022-07-06T14:14:10;1.33;;;0.70;;
17340;SDS011;8788;49.930;8.660;2022-07-06T14:16:37;1.30;;;0.77;;
17340;SDS011;8788;49.930;8.660;2022-07-06T14:19:05;1.65;;;1.08;;
17340;SDS011;8788;49.930;8.660;2022-07-06T14:21:32;0.80;;;0.80;;
17340;SDS011;8788;49.930;8.660;2022-07-06T14:23:59;2.35;;;0.70;;
17340;SDS011;8788;49.930;8.660;2022-07-06T14:26:28;2.15;;;0.80;;
17340;SDS011;8788;49.930;8.660;2022-07-06T14:28:55;1.15;;;0.80;;
17340;SDS011;8788;49.930;8.660;2022-07-06T14:31:22;1.50;;;0.82;;
17340;SDS011;8788;49.930;8.660;2022-07-06T14:33:50;0.90;;;0.88;;
17340;SDS011;8788;49.930;8.660;2022-07-06T14:36:17;1.35;;;0.90;;
17340;SDS011;8788;49.930;8.660;2022-07-06T14:39:09;1.35;;;0.93;;
17340;SDS011;8788;49.930;8.660;2022-07-06T14:41:39;1.42;;;0.70;;
17340;SDS011;8788;49.930;8.660;2022-07-06T14:44:06;1.30;;;0.63;;
17340;SDS011;8788;49.930;8.660;2022-07-06T14:46:33;1.13;;;0.85;;
17340;SDS011;8788;49.930;8.660;2022-07-06T14:49:01;1.55;;;0.80;;
17340;SDS011;8788;49.930;8.660;2022-07-06T14:51:29;0.90;;;0.90;;
17340;SDS011;8788;49.930;8.660;2022-07-06T14:53:56;2.53;;;1.05;;
17340;SDS011;8788;49.930;8.660;2022-07-06T14:56:23;2.53;;;1.00;;
17340;SDS011;8788;49.930;8.660;2022-07-06T14:58:51;1.33;;;0.95;;
17340;SDS011;8788;49.930;8.660;2022-07-06T15:01:19;0.73;;;0.73;;
17340;SDS011;8788;49.930;8.660;2022-07-06T15:03:46;0.75;;;0.70;;
17340;SDS011;8788;49.930;8.660;2022-07-06T15:06:13;1.48;;;0.70;;
17340;SDS011;8788;49.930;8.660;2022-07-06T15:09:05;1.08;;;0.60;;
17340;SDS011;8788;49.930;8.660;2022-07-06T15:11:32;0.75;;;0.60;;
17340;SDS011;8788;49.930;8.660;2022-07-06T15:14:01;2.88;;;1.33;;